sensor_id;sensor_type;location;lat;lon;timestamp;P1;durP1;ratioP1;P2;durP2;ratioP2
21741;SDS011;11033;47.490;11.116;2022-09-16T00:00:16;8.05;;;5.65;;
21741;SDS011;11033;47.490;11.116;2022-09-16T00:02:41;6.15;;;4.40;;
21741;SDS011;11033;47.490;11.116;2022-09-16T00:05:07;4.68;;;4.22;;
21741;SDS011;11033;47.490;11.116;2022-09-16T00:07:33;6.28;;;4.60;;
21741;SDS011;11033;47.490;11.116;2022-09-16T00:09:58;6.55;;;4.90;;
21741;SDS011;11033;47.490;11.116;2022-09-16T00:12:24;6.53;;;4.10;;
21741;SDS011;11033;47.490;11.116;2022-09-16T00:14:51;6.90;;;4.55;;
21741;SDS011;11033;47.490;11.116;2022-09-16T00:17:17;6.38;;;4.07;;
21741;SDS011;11033;47.490;11.116;2022-09-16T00:19:42;5.07;;;4.57;;
21741;SDS011;11033;47.490;11.116;2022-09-16T00:22:07;9.30;;;5.03;;
21741;SDS011;11033;47.490;11.116;2022-09-16T00:24:33;4.60;;;4.20;;
21741;SDS011;11033;47.490;11.116;2022-09-16T00:26:58;7.00;;;4.47;;
21741;SDS011;11033;47.490;11.116;2022-09-16T00:29:23;6.13;;;4.25;;
21741;SDS011;11033;47.490;11.116;2022-09-16T00:31:49;5.82;;;5.13;;
21741;SDS011;11033;47.490;11.116;2022-09-16T00:34:14;7.32;;;5.18;;
21741;SDS011;11033;47.490;11.116;2022-09-16T00:36:39;7.38;;;5.38;;
21741;SDS011;11033;47.490;11.116;2022-09-16T00:39:05;12.17;;;5.40;;
21741;SDS011;11033;47.490;11.116;2022-09-16T00:41:30;5.43;;;3.73;;
21741;SDS011;11033;47.490;11.116;2022-09-16T00:44:01;5.43;;;3.90;;
21741;SDS011;11033;47.490;11.116;2022-09-16T00:46:34;5.90;;;4.13;;
21741;SDS011;11033;47.490;11.116;2022-09-16T00:49:16;4.32;;;3.92;;
21741;SDS011;11033;47.490;11.116;2022-09-16T00:51:44;6.72;;;4.30;;
21741;SDS011;11033;47.490;11.116;2022-09-16T00:54:12;5.57;;;5.07;;
21741;SDS011;11033;47.490;11.116;2022-09-16T00:56:40;5.40;;;4.57;;
21741;SDS011;11033;47.490;11.116;2022-09-16T00:59:18;7.53;;;5.13;;
21741;SDS011;11033;47.490;11.116;2022-09-16T01:01:48;7.85;;;5.07;;
21741;SDS011;11033;47.490;11.116;2022-09-16T01:04:18;5.57;;;5.00;;
21741;SDS011;11033;47.490;11.116;2022-09-16T01:06:48;6.07;;;4.80;;
21741;SDS011;11033;47.490;11.116;2022-09-16T01:09:14;7.78;;;5.03;;
21741;SDS011;11033;47.490;11.116;2022-09-16T01:11:40;7.13;;;5.07;;
21741;SDS011;11033;47.490;11.116;2022-09-16T01:14:05;8.05;;;5.70;;
21741;SDS011;11033;47.490;11.116;2022-09-16T01:17:25;7.78;;;5.20;;
21741;SDS011;11033;47.490;11.116;2022-09-16T01:22:49;6.03;;;4.90;;
21741;SDS011;11033;47.490;11.116;2022-09-16T01:31:35;7.55;;;5.03;;
21741;SDS011;11033;47.490;11.116;2022-09-16T01:34:54;5.10;;;4.60;;
21741;SDS011;11033;47.490;11.116;2022-09-16T01:45:26;4.68;;;4.28;;
21741;SDS011;11033;47.490;11.116;2022-09-16T01:50:53;5.57;;;4.70;;
21741;SDS011;11033;47.490;11.116;2022-09-16T01:53:28;5.70;;;4.63;;
21741;SDS011;11033;47.490;11.116;2022-09-16T01:55:57;6.82;;;4.80;;
21741;SDS011;11033;47.490;11.116;2022-09-16T01:58:29;5.57;;;4.03;;
21741;SDS011;11033;47.490;11.116;2022-09-16T02:01:03;7.32;;;4.82;;
21741;SDS011;11033;47.490;11.116;2022-09-16T02:03:34;5.68;;;4.28;;
21741;SDS011;11033;47.490;11.116;2022-09-16T02:06:04;11.23;;;4.85;;
21741;SDS011;11033;47.490;11.116;2022-09-16T02:08:40;5.68;;;4.25;;
21741;SDS011;11033;47.490;11.116;2022-09-16T02:11:12;7.93;;;4.82;;
21741;SDS011;11033;47.490;11.116;2022-09-16T02:13:41;7.40;;;5.20;;
21741;SDS011;11033;47.490;11.116;2022-09-16T02:17:10;8.02;;;5.82;;
21741;SDS011;11033;47.490;11.116;2022-09-16T02:19:14;7.00;;;4.43;;
21741;SDS011;11033;47.490;11.116;2022-09-16T02:21:53;9.40;;;4.70;;
21741;SDS011;11033;47.490;11.116;2022-09-16T02:24:21;6.22;;;4.68;;
21741;SDS011;11033;47.490;11.116;2022-09-16T02:26:51;7.30;;;4.95;;
21741;SDS011;11033;47.490;11.116;2022-09-16T02:29:21;6.00;;;4.75;;
21741;SDS011;11033;47.490;11.116;2022-09-16T02:31:49;9.38;;;5.05;;
21741;SDS011;11033;47.490;11.116;2022-09-16T02:34:22;8.90;;;5.25;;
21741;SDS011;11033;47.490;11.116;2022-09-16T02:36:54;6.68;;;4.18;;
21741;SDS011;11033;47.490;11.116;2022-09-16T02:39:26;4.90;;;4.40;;
21741;SDS011;11033;47.490;11.116;2022-09-16T02:41:54;4.95;;;4.50;;
21741;SDS011;11033;47.490;11.116;2022-09-16T02:44:22;5.13;;;4.63;;
21741;SDS011;11033;47.490;11.116;2022-09-16T02:47:08;5.78;;;4.90;;
21741;SDS011;11033;47.490;11.116;2022-09-16T02:52:21;6.05;;;5.45;;
21741;SDS011;11033;47.490;11.116;2022-09-16T02:54:55;8.30;;;4.50;;
21741;SDS011;11033;47.490;11.116;2022-09-16T02:57:34;6.20;;;4.53;;
21741;SDS011;11033;47.490;11.116;2022-09-16T03:00:00;5.70;;;4.20;;
21741;SDS011;11033;47.490;11.116;2022-09-16T03:02:25;5.57;;;5.05;;
21741;SDS011;11033;47.490;11.116;2022-09-16T03:04:51;7.10;;;4.60;;
21741;SDS011;11033;47.490;11.116;2022-09-16T03:07:16;5.65;;;4.43;;
21741;SDS011;11033;47.490;11.116;2022-09-16T03:09:43;6.78;;;5.40;;
21741;SDS011;11033;47.490;11.116;2022-09-16T03:17:54;8.73;;;5.03;;
21741;SDS011;11033;47.490;11.116;2022-09-16T03:23:38;4.97;;;4.10;;
21741;SDS011;11033;47.490;11.116;2022-09-16T03:29:17;4.70;;;4.30;;
21741;SDS011;11033;47.490;11.116;2022-09-16T03:34:51;6.63;;;5.10;;
21741;SDS011;11033;47.490;11.116;2022-09-16T03:37:20;5.18;;;4.68;;
21741;SDS011;11033;47.490;11.116;2022-09-16T03:39:51;8.95;;;5.63;;
21741;SDS011;11033;47.490;11.116;2022-09-16T03:42:21;7.03;;;5.13;;
21741;SDS011;11033;47.490;11.116;2022-09-16T03:44:47;5.78;;;5.18;;
21741;SDS011;11033;47.490;11.116;2022-09-16T03:47:12;7.03;;;6.32;;
21741;SDS011;11033;47.490;11.116;2022-09-16T03:49:38;6.25;;;5.40;;
21741;SDS011;11033;47.490;11.116;2022-09-16T03:52:03;6.50;;;5.28;;
21741;SDS011;11033;47.490;11.116;2022-09-16T03:54:32;6.70;;;6.00;;
21741;SDS011;11033;47.490;11.116;2022-09-16T03:56:59;6.35;;;4.50;;
21741;SDS011;11033;47.490;11.116;2022-09-16T03:59:24;5.55;;;4.38;;
21741;SDS011;11033;47.490;11.116;2022-09-16T04:01:50;7.30;;;6.28;;
21741;SDS011;11033;47.490;11.116;2022-09-16T04:04:15;6.03;;;5.53;;
21741;SDS011;11033;47.490;11.116;2022-09-16T04:06:41;5.47;;;4.93;;
21741;SDS011;11033;47.490;11.116;2022-09-16T04:09:06;8.13;;;5.80;;
21741;SDS011;11033;47.490;11.116;2022-09-16T04:11:36;7.38;;;5.18;;
21741;SDS011;11033;47.490;11.116;2022-09-16T04:14:02;8.80;;;7.23;;
21741;SDS011;11033;47.490;11.116;2022-09-16T04:16:28;8.73;;;6.47;;
21741;SDS011;11033;47.490;11.116;2022-09-16T04:18:53;6.63;;;5.17;;
21741;SDS011;11033;47.490;11.116;2022-09-16T04:21:18;7.37;;;5.23;;
21741;SDS011;11033;47.490;11.116;2022-09-16T04:23:43;8.67;;;6.67;;
21741;SDS011;11033;47.490;11.116;2022-09-16T04:26:09;5.75;;;5.20;;
21741;SDS011;11033;47.490;11.116;2022-09-16T04:28:35;6.10;;;5.32;;
21741;SDS011;11033;47.490;11.116;2022-09-16T04:31:01;6.95;;;6.10;;
21741;SDS011;11033;47.490;11.116;2022-09-16T04:33:36;8.55;;;6.40;;
21741;SDS011;11033;47.490;11.116;2022-09-16T04:36:06;8.63;;;6.28;;
21741;SDS011;11033;47.490;11.116;2022-09-16T04:40:59;5.88;;;4.68;;
21741;SDS011;11033;47.490;11.116;2022-09-16T04:43:25;7.95;;;6.50;;
21741;SDS011;11033;47.490;11.116;2022-09-16T04:45:50;9.07;;;5.93;;
21741;SDS011;11033;47.490;11.116;2022-09-16T04:48:16;8.97;;;6.20;;
21741;SDS011;11033;47.490;11.116;2022-09-16T04:50:42;12.30;;;6.15;;
21741;SDS011;11033;47.490;11.116;2022-09-16T04:53:07;5.55;;;4.97;;
21741;SDS011;11033;47.490;11.116;2022-09-16T04:55:32;7.73;;;6.13;;
21741;SDS011;11033;47.490;11.116;2022-09-16T04:57:58;7.10;;;5.35;;
21741;SDS011;11033;47.490;11.116;2022-09-16T05:00:24;7.95;;;5.50;;
21741;SDS011;11033;47.490;11.116;2022-09-16T05:02:49;8.20;;;5.75;;
21741;SDS011;11033;47.490;11.116;2022-09-16T05:05:15;6.00;;;5.15;;
21741;SDS011;11033;47.490;11.116;2022-09-16T05:07:41;5.68;;;5.05;;
21741;SDS011;11033;47.490;11.116;2022-09-16T05:10:06;5.90;;;5.00;;
21741;SDS011;11033;47.490;11.116;2022-09-16T05:12:32;5.82;;;5.15;;
21741;SDS011;11033;47.490;11.116;2022-09-16T05:14:57;8.85;;;5.30;;
21741;SDS011;11033;47.490;11.116;2022-09-16T05:17:23;6.43;;;5.18;;
21741;SDS011;11033;47.490;11.116;2022-09-16T05:19:48;8.07;;;6.25;;
21741;SDS011;11033;47.490;11.116;2022-09-16T05:22:13;6.30;;;5.07;;
21741;SDS011;11033;47.490;11.116;2022-09-16T05:24:38;6.87;;;6.13;;
21741;SDS011;11033;47.490;11.116;2022-09-16T05:27:04;5.75;;;4.95;;
21741;SDS011;11033;47.490;11.116;2022-09-16T05:29:29;7.10;;;6.32;;
21741;SDS011;11033;47.490;11.116;2022-09-16T05:31:54;7.30;;;6.03;;
21741;SDS011;11033;47.490;11.116;2022-09-16T05:34:20;7.43;;;6.65;;
21741;SDS011;11033;47.490;11.116;2022-09-16T05:36:47;6.25;;;5.70;;
21741;SDS011;11033;47.490;11.116;2022-09-16T05:39:17;7.35;;;6.63;;
21741;SDS011;11033;47.490;11.116;2022-09-16T05:41:43;6.93;;;6.20;;
21741;SDS011;11033;47.490;11.116;2022-09-16T05:44:09;9.57;;;6.50;;
21741;SDS011;11033;47.490;11.116;2022-09-16T05:46:34;7.22;;;6.53;;
21741;SDS011;11033;47.490;11.116;2022-09-16T05:49:00;6.25;;;5.65;;
21741;SDS011;11033;47.490;11.116;2022-09-16T05:51:26;6.05;;;5.45;;
21741;SDS011;11033;47.490;11.116;2022-09-16T05:53:52;6.30;;;5.70;;
21741;SDS011;11033;47.490;11.116;2022-09-16T05:56:19;6.47;;;5.88;;
21741;SDS011;11033;47.490;11.116;2022-09-16T05:58:46;7.22;;;6.07;;
21741;SDS011;11033;47.490;11.116;2022-09-16T06:01:16;7.75;;;5.65;;
21741;SDS011;11033;47.490;11.116;2022-09-16T06:03:43;6.80;;;5.43;;
21741;SDS011;11033;47.490;11.116;2022-09-16T06:06:23;6.85;;;5.60;;
21741;SDS011;11033;47.490;11.116;2022-09-16T06:08:52;8.73;;;5.18;;
21741;SDS011;11033;47.490;11.116;2022-09-16T06:11:20;6.00;;;5.25;;
21741;SDS011;11033;47.490;11.116;2022-09-16T06:13:46;5.80;;;4.65;;
21741;SDS011;11033;47.490;11.116;2022-09-16T06:16:11;7.60;;;5.47;;
21741;SDS011;11033;47.490;11.116;2022-09-16T06:18:38;7.20;;;5.75;;
21741;SDS011;11033;47.490;11.116;2022-09-16T06:21:05;5.43;;;4.90;;
21741;SDS011;11033;47.490;11.116;2022-09-16T06:23:34;6.90;;;5.90;;
21741;SDS011;11033;47.490;11.116;2022-09-16T06:26:01;11.57;;;6.07;;
21741;SDS011;11033;47.490;11.116;2022-09-16T06:28:28;7.22;;;5.28;;
21741;SDS011;11033;47.490;11.116;2022-09-16T06:31:28;8.23;;;5.55;;
21741;SDS011;11033;47.490;11.116;2022-09-16T06:33:50;5.72;;;5.13;;
21741;SDS011;11033;47.490;11.116;2022-09-16T06:36:20;6.25;;;5.65;;
21741;SDS011;11033;47.490;11.116;2022-09-16T06:38:56;6.93;;;5.55;;
21741;SDS011;11033;47.490;11.116;2022-09-16T06:41:21;7.90;;;5.93;;
21741;SDS011;11033;47.490;11.116;2022-09-16T06:43:47;6.82;;;5.13;;
21741;SDS011;11033;47.490;11.116;2022-09-16T06:46:16;6.40;;;5.72;;
21741;SDS011;11033;47.490;11.116;2022-09-16T06:48:46;5.65;;;5.15;;
21741;SDS011;11033;47.490;11.116;2022-09-16T06:51:16;5.53;;;4.88;;
21741;SDS011;11033;47.490;11.116;2022-09-16T06:53:43;5.28;;;4.78;;
21741;SDS011;11033;47.490;11.116;2022-09-16T06:56:10;8.48;;;5.40;;
21741;SDS011;11033;47.490;11.116;2022-09-16T06:58:38;4.47;;;4.07;;
21741;SDS011;11033;47.490;11.116;2022-09-16T07:01:08;4.18;;;3.85;;
21741;SDS011;11033;47.490;11.116;2022-09-16T07:03:38;3.78;;;3.47;;
21741;SDS011;11033;47.490;11.116;2022-09-16T07:06:05;4.90;;;4.43;;
21741;SDS011;11033;47.490;11.116;2022-09-16T07:08:31;4.78;;;4.28;;
21741;SDS011;11033;47.490;11.116;2022-09-16T07:10:58;4.40;;;4.00;;
21741;SDS011;11033;47.490;11.116;2022-09-16T07:13:28;5.47;;;4.38;;
21741;SDS011;11033;47.490;11.116;2022-09-16T07:15:57;4.93;;;4.43;;
21741;SDS011;11033;47.490;11.116;2022-09-16T07:18:27;8.27;;;5.43;;
21741;SDS011;11033;47.490;11.116;2022-09-16T07:20:59;5.40;;;4.90;;
21741;SDS011;11033;47.490;11.116;2022-09-16T07:23:34;4.93;;;4.43;;
21741;SDS011;11033;47.490;11.116;2022-09-16T07:28:40;6.22;;;5.63;;
21741;SDS011;11033;47.490;11.116;2022-09-16T07:31:11;7.65;;;6.15;;
21741;SDS011;11033;47.490;11.116;2022-09-16T07:33:40;5.28;;;4.78;;
21741;SDS011;11033;47.490;11.116;2022-09-16T07:36:08;5.60;;;5.10;;
21741;SDS011;11033;47.490;11.116;2022-09-16T07:38:35;6.47;;;5.32;;
21741;SDS011;11033;47.490;11.116;2022-09-16T07:41:07;5.88;;;5.13;;
21741;SDS011;11033;47.490;11.116;2022-09-16T07:43:36;6.80;;;5.43;;
21741;SDS011;11033;47.490;11.116;2022-09-16T07:46:02;7.72;;;5.95;;
21741;SDS011;11033;47.490;11.116;2022-09-16T07:48:28;7.43;;;5.13;;
21741;SDS011;11033;47.490;11.116;2022-09-16T07:51:00;7.57;;;6.32;;
21741;SDS011;11033;47.490;11.116;2022-09-16T07:53:30;5.60;;;4.88;;
21741;SDS011;11033;47.490;11.116;2022-09-16T07:56:03;7.45;;;5.90;;
21741;SDS011;11033;47.490;11.116;2022-09-16T07:58:30;5.25;;;4.60;;
21741;SDS011;11033;47.490;11.116;2022-09-16T08:00:55;5.90;;;5.30;;
21741;SDS011;11033;47.490;11.116;2022-09-16T08:03:21;5.07;;;4.57;;
21741;SDS011;11033;47.490;11.116;2022-09-16T08:05:46;4.75;;;4.35;;
21741;SDS011;11033;47.490;11.116;2022-09-16T08:08:11;4.40;;;4.00;;
21741;SDS011;11033;47.490;11.116;2022-09-16T08:10:37;5.20;;;4.70;;
21741;SDS011;11033;47.490;11.116;2022-09-16T08:13:03;4.70;;;3.78;;
21741;SDS011;11033;47.490;11.116;2022-09-16T08:15:29;4.32;;;3.92;;
21741;SDS011;11033;47.490;11.116;2022-09-16T08:17:54;3.85;;;3.55;;
21741;SDS011;11033;47.490;11.116;2022-09-16T08:20:19;4.53;;;4.13;;
21741;SDS011;11033;47.490;11.116;2022-09-16T08:22:45;5.80;;;5.20;;
21741;SDS011;11033;47.490;11.116;2022-09-16T08:25:10;4.97;;;4.33;;
21741;SDS011;11033;47.490;11.116;2022-09-16T08:27:35;4.80;;;4.15;;
21741;SDS011;11033;47.490;11.116;2022-09-16T08:30:02;5.15;;;4.13;;
21741;SDS011;11033;47.490;11.116;2022-09-16T08:32:28;4.38;;;3.97;;
21741;SDS011;11033;47.490;11.116;2022-09-16T08:34:53;4.87;;;3.90;;
21741;SDS011;11033;47.490;11.116;2022-09-16T08:37:18;4.20;;;3.80;;
21741;SDS011;11033;47.490;11.116;2022-09-16T08:39:45;5.73;;;3.70;;
21741;SDS011;11033;47.490;11.116;2022-09-16T08:42:32;5.57;;;3.83;;
21741;SDS011;11033;47.490;11.116;2022-09-16T08:45:02;3.70;;;3.40;;
21741;SDS011;11033;47.490;11.116;2022-09-16T08:50:20;4.97;;;3.83;;
21741;SDS011;11033;47.490;11.116;2022-09-16T08:52:50;3.97;;;3.53;;
21741;SDS011;11033;47.490;11.116;2022-09-16T08:55:21;3.72;;;2.95;;
21741;SDS011;11033;47.490;11.116;2022-09-16T09:00:29;4.55;;;4.15;;
21741;SDS011;11033;47.490;11.116;2022-09-16T09:10:49;4.22;;;3.30;;
21741;SDS011;11033;47.490;11.116;2022-09-16T09:13:26;3.42;;;3.13;;
21741;SDS011;11033;47.490;11.116;2022-09-16T09:21:38;3.38;;;3.05;;
21741;SDS011;11033;47.490;11.116;2022-09-16T09:26:45;3.45;;;3.15;;
21741;SDS011;11033;47.490;11.116;2022-09-16T09:31:56;3.30;;;2.90;;
21741;SDS011;11033;47.490;11.116;2022-09-16T09:34:46;3.10;;;2.80;;
21741;SDS011;11033;47.490;11.116;2022-09-16T09:42:44;3.58;;;3.00;;
21741;SDS011;11033;47.490;11.116;2022-09-16T09:45:19;3.58;;;3.28;;
21741;SDS011;11033;47.490;11.116;2022-09-16T09:47:52;4.32;;;3.28;;
21741;SDS011;11033;47.490;11.116;2022-09-16T09:50:27;3.78;;;3.22;;
21741;SDS011;11033;47.490;11.116;2022-09-16T09:53:04;4.05;;;3.65;;
21741;SDS011;11033;47.490;11.116;2022-09-16T09:55:50;4.88;;;3.10;;
21741;SDS011;11033;47.490;11.116;2022-09-16T09:58:27;3.53;;;3.22;;
21741;SDS011;11033;47.490;11.116;2022-09-16T10:00:55;3.65;;;3.13;;
21741;SDS011;11033;47.490;11.116;2022-09-16T10:03:22;3.85;;;3.40;;
21741;SDS011;11033;47.490;11.116;2022-09-16T10:05:48;4.15;;;3.20;;
21741;SDS011;11033;47.490;11.116;2022-09-16T10:08:16;4.82;;;3.35;;
21741;SDS011;11033;47.490;11.116;2022-09-16T10:10:52;3.45;;;3.15;;
21741;SDS011;11033;47.490;11.116;2022-09-16T10:13:17;4.15;;;3.20;;
21741;SDS011;11033;47.490;11.116;2022-09-16T10:15:44;4.03;;;3.28;;
21741;SDS011;11033;47.490;11.116;2022-09-16T10:20:58;6.43;;;4.40;;
21741;SDS011;11033;47.490;11.116;2022-09-16T10:23:29;3.53;;;3.15;;
21741;SDS011;11033;47.490;11.116;2022-09-16T10:26:02;6.57;;;3.55;;
21741;SDS011;11033;47.490;11.116;2022-09-16T10:28:30;3.83;;;3.22;;
21741;SDS011;11033;47.490;11.116;2022-09-16T10:30:56;3.35;;;3.05;;
21741;SDS011;11033;47.490;11.116;2022-09-16T10:33:40;4.15;;;3.65;;
21741;SDS011;11033;47.490;11.116;2022-09-16T10:36:08;4.05;;;3.38;;
21741;SDS011;11033;47.490;11.116;2022-09-16T10:38:42;4.45;;;3.40;;
21741;SDS011;11033;47.490;11.116;2022-09-16T10:41:24;4.45;;;3.25;;
21741;SDS011;11033;47.490;11.116;2022-09-16T10:44:10;3.42;;;2.97;;
21741;SDS011;11033;47.490;11.116;2022-09-16T10:46:50;4.15;;;3.28;;
21741;SDS011;11033;47.490;11.116;2022-09-16T10:49:20;4.82;;;3.20;;
21741;SDS011;11033;47.490;11.116;2022-09-16T10:51:51;3.92;;;3.60;;
21741;SDS011;11033;47.490;11.116;2022-09-16T10:54:26;3.78;;;3.40;;
21741;SDS011;11033;47.490;11.116;2022-09-16T10:56:52;4.55;;;3.13;;
21741;SDS011;11033;47.490;11.116;2022-09-16T10:59:18;11.23;;;3.40;;
21741;SDS011;11033;47.490;11.116;2022-09-16T11:01:58;4.70;;;3.58;;
21741;SDS011;11033;47.490;11.116;2022-09-16T11:07:21;4.15;;;3.70;;
21741;SDS011;11033;47.490;11.116;2022-09-16T11:37:54;3.67;;;3.38;;
21741;SDS011;11033;47.490;11.116;2022-09-16T11:45:57;5.78;;;3.58;;
21741;SDS011;11033;47.490;11.116;2022-09-16T11:51:34;4.35;;;3.95;;
21741;SDS011;11033;47.490;11.116;2022-09-16T11:57:31;5.15;;;3.38;;
21741;SDS011;11033;47.490;11.116;2022-09-16T12:00:08;4.03;;;3.67;;
21741;SDS011;11033;47.490;11.116;2022-09-16T12:10:41;3.80;;;3.50;;
21741;SDS011;11033;47.490;11.116;2022-09-16T12:13:13;4.07;;;3.53;;
21741;SDS011;11033;47.490;11.116;2022-09-16T12:19:02;4.45;;;3.83;;
21741;SDS011;11033;47.490;11.116;2022-09-16T12:21:58;4.30;;;3.90;;
21741;SDS011;11033;47.490;11.116;2022-09-16T12:30:04;4.43;;;3.60;;
21741;SDS011;11033;47.490;11.116;2022-09-16T12:35:28;3.88;;;3.33;;
21741;SDS011;11033;47.490;11.116;2022-09-16T12:38:01;3.35;;;3.03;;
21741;SDS011;11033;47.490;11.116;2022-09-16T12:40:28;3.60;;;3.30;;
21741;SDS011;11033;47.490;11.116;2022-09-16T12:43:12;3.97;;;3.67;;
21741;SDS011;11033;47.490;11.116;2022-09-16T12:46:02;3.53;;;3.22;;
21741;SDS011;11033;47.490;11.116;2022-09-16T12:54:36;3.78;;;3.35;;
21741;SDS011;11033;47.490;11.116;2022-09-16T13:00:23;3.28;;;2.97;;
21741;SDS011;11033;47.490;11.116;2022-09-16T13:02:57;5.43;;;2.88;;
21741;SDS011;11033;47.490;11.116;2022-09-16T13:05:29;4.22;;;2.60;;
21741;SDS011;11033;47.490;11.116;2022-09-16T13:07:59;4.38;;;1.90;;
21741;SDS011;11033;47.490;11.116;2022-09-16T13:13:03;1.45;;;1.35;;
21741;SDS011;11033;47.490;11.116;2022-09-16T13:15:34;1.52;;;1.42;;
21741;SDS011;11033;47.490;11.116;2022-09-16T13:21:06;2.33;;;1.65;;
21741;SDS011;11033;47.490;11.116;2022-09-16T13:23:39;1.98;;;1.60;;
21741;SDS011;11033;47.490;11.116;2022-09-16T13:26:07;1.63;;;1.48;;
21741;SDS011;11033;47.490;11.116;2022-09-16T13:33:40;2.92;;;1.30;;
21741;SDS011;11033;47.490;11.116;2022-09-16T13:36:16;1.42;;;1.33;;
21741;SDS011;11033;47.490;11.116;2022-09-16T13:39:04;1.63;;;1.52;;
21741;SDS011;11033;47.490;11.116;2022-09-16T13:44:25;5.55;;;1.77;;
21741;SDS011;11033;47.490;11.116;2022-09-16T13:46:54;1.27;;;1.17;;
21741;SDS011;11033;47.490;11.116;2022-09-16T13:49:40;1.48;;;1.10;;
21741;SDS011;11033;47.490;11.116;2022-09-16T13:52:11;1.60;;;1.40;;
21741;SDS011;11033;47.490;11.116;2022-09-16T13:54:41;1.60;;;1.50;;
21741;SDS011;11033;47.490;11.116;2022-09-16T14:08:35;1.00;;;1.00;;
21741;SDS011;11033;47.490;11.116;2022-09-16T14:11:16;1.33;;;1.13;;
21741;SDS011;11033;47.490;11.116;2022-09-16T14:13:44;2.75;;;1.23;;
21741;SDS011;11033;47.490;11.116;2022-09-16T14:16:17;1.35;;;1.25;;
21741;SDS011;11033;47.490;11.116;2022-09-16T14:18:55;1.73;;;1.42;;
21741;SDS011;11033;47.490;11.116;2022-09-16T14:21:28;1.98;;;1.30;;
21741;SDS011;11033;47.490;11.116;2022-09-16T14:23:54;1.77;;;1.30;;
21741;SDS011;11033;47.490;11.116;2022-09-16T14:26:20;1.40;;;1.30;;
21741;SDS011;11033;47.490;11.116;2022-09-16T14:28:47;1.30;;;1.20;;
21741;SDS011;11033;47.490;11.116;2022-09-16T14:31:17;1.70;;;1.30;;
21741;SDS011;11033;47.490;11.116;2022-09-16T14:36:19;1.27;;;1.17;;
21741;SDS011;11033;47.490;11.116;2022-09-16T14:39:00;1.55;;;1.27;;
21741;SDS011;11033;47.490;11.116;2022-09-16T14:46:32;1.30;;;1.20;;
21741;SDS011;11033;47.490;11.116;2022-09-16T14:49:02;2.08;;;1.10;;
21741;SDS011;11033;47.490;11.116;2022-09-16T14:51:27;1.10;;;1.10;;
21741;SDS011;11033;47.490;11.116;2022-09-16T14:53:54;1.88;;;1.52;;
21741;SDS011;11033;47.490;11.116;2022-09-16T14:56:21;1.40;;;1.30;;
21741;SDS011;11033;47.490;11.116;2022-09-16T14:58:46;2.50;;;1.45;;
21741;SDS011;11033;47.490;11.116;2022-09-16T15:01:17;1.77;;;1.67;;
21741;SDS011;11033;47.490;11.116;2022-09-16T15:06:17;3.13;;;2.07;;
21741;SDS011;11033;47.490;11.116;2022-09-16T15:11:17;3.27;;;1.50;;
21741;SDS011;11033;47.490;11.116;2022-09-16T15:13:46;2.08;;;1.67;;
21741;SDS011;11033;47.490;11.116;2022-09-16T15:16:16;2.90;;;1.55;;
21741;SDS011;11033;47.490;11.116;2022-09-16T15:18:57;2.20;;;2.00;;
21741;SDS011;11033;47.490;11.116;2022-09-16T15:21:25;2.70;;;2.05;;
21741;SDS011;11033;47.490;11.116;2022-09-16T15:23:54;2.50;;;2.30;;
21741;SDS011;11033;47.490;11.116;2022-09-16T15:26:29;3.83;;;2.42;;
21741;SDS011;11033;47.490;11.116;2022-09-16T15:29:06;2.92;;;2.65;;
21741;SDS011;11033;47.490;11.116;2022-09-16T15:31:50;3.35;;;2.78;;
21741;SDS011;11033;47.490;11.116;2022-09-16T15:36:42;3.97;;;2.53;;
21741;SDS011;11033;47.490;11.116;2022-09-16T15:42:02;3.53;;;3.10;;
21741;SDS011;11033;47.490;11.116;2022-09-16T15:44:34;5.43;;;3.30;;
21741;SDS011;11033;47.490;11.116;2022-09-16T15:47:00;4.68;;;3.38;;
21741;SDS011;11033;47.490;11.116;2022-09-16T15:49:27;3.47;;;3.17;;
21741;SDS011;11033;47.490;11.116;2022-09-16T15:51:54;3.92;;;2.83;;
21741;SDS011;11033;47.490;11.116;2022-09-16T15:54:40;3.10;;;2.80;;
21741;SDS011;11033;47.490;11.116;2022-09-16T15:57:30;4.28;;;2.90;;
21741;SDS011;11033;47.490;11.116;2022-09-16T16:00:01;4.40;;;3.67;;
21741;SDS011;11033;47.490;11.116;2022-09-16T16:05:12;4.00;;;3.65;;
21741;SDS011;11033;47.490;11.116;2022-09-16T16:07:44;5.57;;;4.43;;
21741;SDS011;11033;47.490;11.116;2022-09-16T16:10:12;5.03;;;4.53;;
21741;SDS011;11033;47.490;11.116;2022-09-16T16:12:49;6.43;;;5.53;;
21741;SDS011;11033;47.490;11.116;2022-09-16T16:15:16;4.30;;;3.97;;
21741;SDS011;11033;47.490;11.116;2022-09-16T16:17:47;5.25;;;4.25;;
21741;SDS011;11033;47.490;11.116;2022-09-16T16:20:14;5.03;;;4.60;;
21741;SDS011;11033;47.490;11.116;2022-09-16T16:22:41;6.45;;;4.82;;
21741;SDS011;11033;47.490;11.116;2022-09-16T16:25:09;5.18;;;4.30;;
21741;SDS011;11033;47.490;11.116;2022-09-16T16:27:35;5.32;;;4.80;;
21741;SDS011;11033;47.490;11.116;2022-09-16T16:30:01;5.65;;;4.97;;
21741;SDS011;11033;47.490;11.116;2022-09-16T16:32:26;4.78;;;4.25;;
21741;SDS011;11033;47.490;11.116;2022-09-16T16:34:52;5.93;;;4.80;;
21741;SDS011;11033;47.490;11.116;2022-09-16T16:37:21;7.70;;;6.45;;
21741;SDS011;11033;47.490;11.116;2022-09-16T16:39:48;6.93;;;4.82;;
21741;SDS011;11033;47.490;11.116;2022-09-16T16:42:13;8.57;;;5.13;;
21741;SDS011;11033;47.490;11.116;2022-09-16T16:44:39;5.80;;;5.00;;
21741;SDS011;11033;47.490;11.116;2022-09-16T16:47:05;5.45;;;4.85;;
21741;SDS011;11033;47.490;11.116;2022-09-16T16:49:32;6.47;;;4.70;;
21741;SDS011;11033;47.490;11.116;2022-09-16T16:51:58;5.38;;;4.85;;
21741;SDS011;11033;47.490;11.116;2022-09-16T16:54:24;6.53;;;5.90;;
21741;SDS011;11033;47.490;11.116;2022-09-16T16:56:50;5.05;;;4.50;;
21741;SDS011;11033;47.490;11.116;2022-09-16T16:59:16;6.47;;;5.88;;
21741;SDS011;11033;47.490;11.116;2022-09-16T17:01:42;6.28;;;5.03;;
21741;SDS011;11033;47.490;11.116;2022-09-16T17:04:09;7.75;;;5.72;;
21741;SDS011;11033;47.490;11.116;2022-09-16T17:06:35;6.20;;;5.13;;
21741;SDS011;11033;47.490;11.116;2022-09-16T17:09:02;5.15;;;4.65;;
21741;SDS011;11033;47.490;11.116;2022-09-16T17:11:28;8.60;;;6.13;;
21741;SDS011;11033;47.490;11.116;2022-09-16T17:13:56;7.50;;;6.57;;
21741;SDS011;11033;47.490;11.116;2022-09-16T17:16:23;6.07;;;5.47;;
21741;SDS011;11033;47.490;11.116;2022-09-16T17:18:49;5.68;;;5.18;;
21741;SDS011;11033;47.490;11.116;2022-09-16T17:21:26;5.95;;;5.32;;
21741;SDS011;11033;47.490;11.116;2022-09-16T17:23:54;14.50;;;5.68;;
21741;SDS011;11033;47.490;11.116;2022-09-16T17:26:20;6.13;;;5.38;;
21741;SDS011;11033;47.490;11.116;2022-09-16T17:28:47;6.45;;;5.15;;
21741;SDS011;11033;47.490;11.116;2022-09-16T17:31:28;8.27;;;6.20;;
21741;SDS011;11033;47.490;11.116;2022-09-16T17:33:56;6.50;;;5.80;;
21741;SDS011;11033;47.490;11.116;2022-09-16T17:36:24;6.70;;;5.40;;
21741;SDS011;11033;47.490;11.116;2022-09-16T17:39:03;8.23;;;6.07;;
21741;SDS011;11033;47.490;11.116;2022-09-16T17:41:30;7.80;;;6.97;;
21741;SDS011;11033;47.490;11.116;2022-09-16T17:43:57;9.57;;;8.57;;
21741;SDS011;11033;47.490;11.116;2022-09-16T17:46:24;8.68;;;7.75;;
21741;SDS011;11033;47.490;11.116;2022-09-16T17:48:51;8.95;;;7.25;;
21741;SDS011;11033;47.490;11.116;2022-09-16T17:51:17;7.78;;;6.97;;
21741;SDS011;11033;47.490;11.116;2022-09-16T17:53:43;7.90;;;7.10;;
21741;SDS011;11033;47.490;11.116;2022-09-16T17:56:12;6.60;;;5.70;;
21741;SDS011;11033;47.490;11.116;2022-09-16T17:58:41;11.00;;;7.37;;
21741;SDS011;11033;47.490;11.116;2022-09-16T18:01:13;7.07;;;6.38;;